createdAt,value
2022-12-18T00:01:18.922Z,101908.53
2022-12-18T00:03:46.948Z,101912.88
2022-12-18T00:06:15.524Z,101928.31
2022-12-18T00:08:43.619Z,101916.31
2022-12-18T00:11:18.357Z,101917.16
2022-12-18T00:13:45.885Z,101927.47
2022-12-18T00:16:14.286Z,101924.91
2022-12-18T00:18:41.977Z,101919.75
2022-12-18T00:21:11.589Z,101922.31
2022-12-18T00:23:39.579Z,101929.19
2022-12-18T00:26:09.084Z,101933.50
2022-12-18T00:28:36.223Z,101919.75
2022-12-18T00:31:08.310Z,101926.63
2022-12-18T00:33:35.953Z,101925.78
2022-12-18T00:36:07.449Z,101931.78
2022-12-18T00:38:35.067Z,101935.22
2022-12-18T00:41:02.553Z,101942.16
2022-12-18T00:43:29.796Z,101933.53
2022-12-18T00:45:56.943Z,101940.41
2022-12-18T00:48:24.136Z,101938.66
2022-12-18T00:50:51.878Z,101948.97
2022-12-18T00:53:19.105Z,101956.69
2022-12-18T00:55:46.551Z,101960.09
2022-12-18T00:58:14.868Z,101960.13
2022-12-18T01:00:42.434Z,101968.72
2022-12-18T01:03:14.484Z,101976.47
2022-12-18T01:05:43.199Z,101971.31
2022-12-18T01:08:10.241Z,101978.19
2022-12-18T01:10:37.409Z,101975.63
2022-12-18T01:13:04.528Z,101987.66
2022-12-18T01:15:31.608Z,101987.69
2022-12-18T01:17:58.661Z,101986.03
2022-12-18T01:20:27.804Z,101999.72
2022-12-18T01:22:54.963Z,102002.28
2022-12-18T01:25:22.025Z,102000.63
2022-12-18T01:27:51.219Z,102014.34
2022-12-18T01:30:18.271Z,102009.19
2022-12-18T01:32:46.099Z,102014.34
2022-12-18T01:35:13.155Z,102016.94
2022-12-18T01:37:40.291Z,102017.81
2022-12-18T01:40:07.875Z,102024.69
2022-12-18T01:42:34.988Z,102017.84
2022-12-18T01:45:07.167Z,102023.00
2022-12-18T01:47:37.654Z,102027.28
2022-12-18T01:50:10.225Z,102024.72
2022-12-18T01:52:41.932Z,102026.44
2022-12-18T01:55:10.758Z,102029.88
2022-12-18T01:57:38.813Z,102040.19
2022-12-18T02:00:08.794Z,102035.03
2022-12-18T02:02:42.655Z,102029.06
2022-12-18T02:05:11.134Z,102028.22
2022-12-18T02:07:53.803Z,102047.09
2022-12-18T02:10:42.658Z,102050.53
2022-12-18T02:13:29.926Z,102047.13
2022-12-18T02:16:11.644Z,102043.69
2022-12-18T02:18:44.167Z,102047.16
2022-12-18T02:21:19.164Z,102060.06
2022-12-18T02:23:46.952Z,102049.75
2022-12-18T02:26:13.934Z,102048.03
2022-12-18T02:28:43.704Z,102048.91
2022-12-18T02:31:12.818Z,102047.19
2022-12-18T02:33:41.704Z,102054.03
2022-12-18T02:36:10.672Z,102047.19
2022-12-18T02:38:39.498Z,102050.63
2022-12-18T02:41:14.053Z,102071.22
2022-12-18T02:43:42.290Z,102061.81
2022-12-18T02:46:28.516Z,102073.81
2022-12-18T02:49:02.457Z,102074.69
2022-12-18T02:51:32.914Z,102081.56
2022-12-18T02:54:09.987Z,102086.72
2022-12-18T02:56:51.991Z,102088.44
2022-12-18T02:59:25.060Z,102091.00
2022-12-18T03:02:18.318Z,102089.31
2022-12-18T03:04:54.695Z,102090.19
2022-12-18T03:07:35.719Z,102085.03
2022-12-18T03:10:04.627Z,102085.06
2022-12-18T03:12:38.972Z,102085.94
2022-12-18T03:15:07.983Z,102089.38
2022-12-18T03:17:38.059Z,102083.34
2022-12-18T03:20:11.705Z,102081.66
2022-12-18T03:22:39.376Z,102086.81
2022-12-18T03:25:08.832Z,102088.53
2022-12-18T03:27:39.436Z,102083.38
2022-12-18T03:30:11.269Z,102086.84
2022-12-18T03:32:48.422Z,102083.41
2022-12-18T03:35:19.159Z,102097.13
2022-12-18T03:37:46.352Z,102096.25
2022-12-18T03:40:14.171Z,102093.66
2022-12-18T03:42:44.355Z,102103.97
2022-12-18T03:45:19.832Z,102091.94
2022-12-18T03:48:07.675Z,102109.13
2022-12-18T03:50:47.544Z,102109.94
2022-12-18T03:53:47.150Z,102114.25
2022-12-18T03:56:16.268Z,102115.09
2022-12-18T03:58:44.725Z,102110.78
2022-12-18T04:01:19.881Z,102115.94
2022-12-18T04:03:49.183Z,102117.69
2022-12-18T04:06:19.012Z,102126.31
2022-12-18T04:08:47.342Z,102138.31
2022-12-18T04:11:17.802Z,102128.00
2022-12-18T04:13:46.355Z,102124.50
2022-12-18T04:16:20.157Z,102130.53
2022-12-18T04:18:50.777Z,102133.06
2022-12-18T04:21:19.490Z,102132.19
2022-12-18T04:23:47.947Z,102132.19
2022-12-18T04:26:15.107Z,102134.78
2022-12-18T04:28:58.149Z,102141.66
2022-12-18T04:31:25.533Z,102159.69
2022-12-18T04:33:53.180Z,102151.06
2022-12-18T04:36:20.597Z,102154.47
2022-12-18T04:38:48.020Z,102153.72
2022-12-18T04:41:17.184Z,102157.13
2022-12-18T04:43:47.362Z,102160.53
2022-12-18T04:46:14.540Z,102159.69
2022-12-18T04:48:41.795Z,102167.41
2022-12-18T04:51:08.926Z,102176.81
2022-12-18T04:53:35.965Z,102186.28
2022-12-18T04:56:07.281Z,102181.97
2022-12-18T04:58:35.118Z,102183.69
2022-12-18T05:01:02.211Z,102188.84
2022-12-18T05:03:30.908Z,102189.69
2022-12-18T05:05:58.203Z,102189.69
2022-12-18T05:08:25.318Z,102191.41
2022-12-18T05:11:01.661Z,102205.13
2022-12-18T05:13:29.471Z,102208.56
2022-12-18T05:15:57.050Z,102212.03
2022-12-18T05:18:24.842Z,102205.13
2022-12-18T05:20:52.365Z,102206.78
2022-12-18T05:23:19.861Z,102209.34
2022-12-18T05:25:54.301Z,102211.94
2022-12-18T05:28:22.055Z,102213.66
2022-12-18T05:30:50.743Z,102222.22
2022-12-18T05:33:18.704Z,102220.50
2022-12-18T05:35:50.857Z,102216.25
2022-12-18T05:38:17.866Z,102226.56
2022-12-18T05:40:45.195Z,102227.41
2022-12-18T05:43:15.384Z,102231.69
2022-12-18T05:45:46.546Z,102235.97
2022-12-18T05:48:13.611Z,102241.13
2022-12-18T05:50:41.734Z,102246.31
2022-12-18T05:53:09.205Z,102249.75
2022-12-18T05:55:36.604Z,102246.34
2022-12-18T05:58:04.892Z,102245.44
2022-12-18T06:00:33.049Z,102249.72
2022-12-18T06:03:00.291Z,102254.88
2022-12-18T06:05:27.954Z,102260.81
2022-12-18T06:07:55.087Z,102273.75
2022-12-18T06:10:22.080Z,102271.97
2022-12-18T06:12:49.355Z,102274.56
2022-12-18T06:15:16.435Z,102273.69
2022-12-18T06:17:44.114Z,102280.50
2022-12-18T06:20:11.801Z,102283.94
2022-12-18T06:22:38.803Z,102289.94
2022-12-18T06:25:06.885Z,102292.53
2022-12-18T06:27:34.959Z,102295.97
2022-12-18T06:30:01.990Z,102297.69
2022-12-18T06:32:29.505Z,102303.69
2022-12-18T06:34:56.668Z,102307.97
2022-12-18T06:37:27.010Z,102306.22
2022-12-18T06:39:54.849Z,102314.00
2022-12-18T06:42:21.899Z,102309.75
2022-12-18T06:44:50.125Z,102316.59
2022-12-18T06:47:17.206Z,102322.66
2022-12-18T06:49:44.256Z,102314.00
2022-12-18T06:52:11.402Z,102321.75
2022-12-18T06:54:38.440Z,102326.97
2022-12-18T06:57:05.552Z,102318.38
2022-12-18T06:59:32.549Z,102329.56
2022-12-18T07:01:59.695Z,102335.56
2022-12-18T07:04:30.837Z,102337.31
2022-12-18T07:06:58.353Z,102340.72
2022-12-18T07:09:25.480Z,102342.41
2022-12-18T07:11:53.696Z,102351.03
2022-12-18T07:14:20.872Z,102354.44
2022-12-18T07:16:47.969Z,102351.03
2022-12-18T07:19:15.360Z,102362.16
2022-12-18T07:21:42.562Z,102364.81
2022-12-18T07:24:09.556Z,102371.66
2022-12-18T07:26:36.708Z,102365.78
2022-12-18T07:29:03.751Z,102376.97
2022-12-18T07:31:30.868Z,102378.59
2022-12-18T07:33:58.328Z,102380.44
2022-12-18T07:36:25.550Z,102384.72
2022-12-18T07:38:54.101Z,102383.84
2022-12-18T07:41:22.127Z,102394.16
2022-12-18T07:43:50.229Z,102401.03
2022-12-18T07:46:17.527Z,102404.47
2022-12-18T07:48:49.598Z,102399.34
2022-12-18T07:51:17.816Z,102406.25
2022-12-18T07:53:45.629Z,102410.56
2022-12-18T07:56:31.189Z,102420.00
2022-12-18T07:58:59.536Z,102418.38
2022-12-18T08:01:27.227Z,102421.84
2022-12-18T08:03:54.728Z,102430.47
2022-12-18T08:06:23.914Z,102445.91
2022-12-18T08:08:57.082Z,102439.94
2022-12-18T08:11:25.446Z,102445.91
2022-12-18T08:13:53.497Z,102458.84
2022-12-18T08:16:21.231Z,102452.94
2022-12-18T08:18:49.956Z,102461.56
2022-12-18T08:21:22.200Z,102459.00
2022-12-18T08:23:51.510Z,102464.13
2022-12-18T08:26:21.113Z,102470.19
2022-12-18T08:28:50.959Z,102471.88
2022-12-18T08:31:18.691Z,102483.09
2022-12-18T08:33:45.846Z,102486.50
2022-12-18T08:36:14.436Z,102496.03
2022-12-18T08:38:41.519Z,102491.72
2022-12-18T08:41:10.381Z,102499.47
2022-12-18T08:43:55.938Z,102504.69
2022-12-18T08:46:26.050Z,102513.28
2022-12-18T08:48:53.839Z,102506.47
2022-12-18T08:51:21.416Z,102503.09
2022-12-18T08:53:48.495Z,102506.56
2022-12-18T08:56:16.021Z,102512.59
2022-12-18T08:58:43.411Z,102513.47
2022-12-18T09:01:11.802Z,102516.97
2022-12-18T09:03:40.662Z,102519.56
2022-12-18T09:06:08.506Z,102521.25
2022-12-18T09:08:38.982Z,102523.88
2022-12-18T09:11:14.154Z,102528.13
2022-12-18T09:13:41.834Z,102523.00
2022-12-18T09:16:09.343Z,102527.41
2022-12-18T09:18:36.447Z,102527.44
2022-12-18T09:21:30.961Z,102530.06
2022-12-18T09:23:58.461Z,102525.84
2022-12-18T09:26:27.736Z,102530.91
2022-12-18T09:28:57.974Z,102533.47
2022-12-18T09:31:25.957Z,102523.25
2022-12-18T09:33:53.204Z,102528.50
2022-12-18T09:36:21.771Z,102528.50
2022-12-18T09:38:49.340Z,102534.53
2022-12-18T09:41:37.264Z,102527.63
2022-12-18T09:44:24.522Z,102524.22
2022-12-18T09:47:16.008Z,102523.38
2022-12-18T09:49:47.018Z,102519.19
2022-12-18T09:52:23.904Z,102526.06
2022-12-18T09:54:54.843Z,102519.25
2022-12-18T09:57:24.173Z,102524.44
2022-12-18T09:59:54.833Z,102515.91
2022-12-18T10:02:24.245Z,102509.84
2022-12-18T10:05:03.509Z,102508.94
2022-12-18T10:07:50.340Z,102508.00
2022-12-18T10:10:25.329Z,102515.78
2022-12-18T10:13:17.242Z,102503.78
2022-12-18T10:15:54.183Z,102490.00
2022-12-18T10:18:37.089Z,102490.88
2022-12-18T10:21:33.849Z,102491.78
2022-12-18T10:24:15.656Z,102497.84
2022-12-18T10:26:44.063Z,102498.75
2022-12-18T10:29:14.983Z,102497.91
2022-12-18T10:31:42.252Z,102503.00
2022-12-18T10:34:13.185Z,102499.50
2022-12-18T10:36:45.489Z,102506.50
2022-12-18T10:39:18.384Z,102499.66
2022-12-18T10:41:48.227Z,102498.81
2022-12-18T10:44:21.214Z,102499.72
2022-12-18T10:46:51.112Z,102503.97
2022-12-18T10:49:40.151Z,102511.69
2022-12-18T10:52:29.500Z,102505.66
2022-12-18T10:55:24.747Z,102503.91
2022-12-18T10:57:57.563Z,102501.41
2022-12-18T11:00:33.902Z,102507.47
2022-12-18T11:03:01.210Z,102506.56
2022-12-18T11:05:33.081Z,102500.56
2022-12-18T11:08:00.967Z,102497.06
2022-12-18T11:10:54.534Z,102493.56
2022-12-18T11:13:23.219Z,102481.56
2022-12-18T11:15:51.291Z,102482.41
2022-12-18T11:18:21.345Z,102481.56
2022-12-18T11:20:59.174Z,102485.03
2022-12-18T11:23:26.885Z,102483.31
2022-12-18T11:26:00.071Z,102488.47
2022-12-18T11:28:36.643Z,102483.31
2022-12-18T11:34:34.304Z,102479.81
2022-12-18T11:37:04.126Z,102484.19
2022-12-18T11:39:34.443Z,102477.28
2022-12-18T11:42:11.698Z,102474.72
2022-12-18T11:44:53.219Z,102467.78
2022-12-18T11:47:40.145Z,102465.22
2022-12-18T11:50:24.094Z,102474.69
2022-12-18T11:52:56.528Z,102467.81
2022-12-18T11:55:31.560Z,102453.16
2022-12-18T11:58:08.916Z,102455.78
2022-12-18T12:00:40.772Z,102458.34
2022-12-18T12:03:23.977Z,102455.81
2022-12-18T12:06:06.814Z,102454.03
2022-12-18T12:08:54.544Z,102451.50
2022-12-18T12:11:41.495Z,102459.28
2022-12-18T12:14:27.591Z,102462.72
2022-12-18T12:17:09.644Z,102461.84
2022-12-18T12:19:57.189Z,102461.00
2022-12-18T12:22:37.117Z,102461.88
2022-12-18T12:25:17.536Z,102448.94
2022-12-18T12:28:04.112Z,102455.84
2022-12-18T12:30:37.833Z,102449.78
2022-12-18T12:33:05.087Z,102442.00
2022-12-18T12:35:58.640Z,102442.88
2022-12-18T12:38:58.316Z,102447.16
2022-12-18T12:41:45.461Z,102442.00
2022-12-18T12:44:44.156Z,102440.28
2022-12-18T12:47:16.033Z,102435.13
2022-12-18T12:49:50.004Z,102447.19
2022-12-18T12:52:25.122Z,102445.47
2022-12-18T12:54:53.093Z,102436.81
2022-12-18T12:57:25.841Z,102438.56
2022-12-18T12:59:59.831Z,102433.38
2022-12-18T13:02:42.899Z,102439.38
2022-12-18T13:05:15.939Z,102429.00
2022-12-18T13:07:51.353Z,102435.91
2022-12-18T13:10:21.718Z,102431.66
2022-12-18T13:13:01.945Z,102435.91
2022-12-18T13:15:36.750Z,102424.72
2022-12-18T13:18:12.977Z,102420.44
2022-12-18T13:20:53.778Z,102417.84
2022-12-18T13:23:32.343Z,102419.56
2022-12-18T13:26:10.031Z,102416.09
2022-12-18T13:28:48.079Z,102420.38
2022-12-18T13:31:35.469Z,102416.97
2022-12-18T13:34:32.754Z,102413.53
2022-12-18T13:37:19.788Z,102417.88
2022-12-18T13:39:47.272Z,102415.25
2022-12-18T13:42:35.500Z,102416.16
2022-12-18T13:45:02.705Z,102413.53
2022-12-18T13:47:35.956Z,102409.22
2022-12-18T13:50:10.407Z,102418.72
2022-12-18T13:52:40.233Z,102415.28
2022-12-18T13:55:16.126Z,102417.84
2022-12-18T13:57:43.353Z,102417.84
2022-12-18T14:00:24.281Z,102426.47
2022-12-18T14:02:51.957Z,102422.16
2022-12-18T14:05:24.203Z,102417.84
2022-12-18T14:07:53.079Z,102419.59
2022-12-18T14:10:50.583Z,102403.22
2022-12-18T14:13:09.720Z,102409.25
2022-12-18T14:15:38.156Z,102409.22
2022-12-18T14:18:26.661Z,102419.59
2022-12-18T14:20:56.716Z,102416.16
2022-12-18T14:23:42.178Z,102414.41
2022-12-18T14:26:30.131Z,102417.84
2022-12-18T14:29:02.137Z,102402.34
2022-12-18T14:31:30.985Z,102411.84
2022-12-18T14:33:58.853Z,102406.66
2022-12-18T14:36:27.575Z,102412.69
2022-12-18T14:38:56.441Z,102410.97
2022-12-18T14:41:23.989Z,102416.16
2022-12-18T14:43:55.837Z,102424.78
2022-12-18T14:46:28.036Z,102417.84
2022-12-18T14:48:55.689Z,102426.50
2022-12-18T14:51:24.541Z,102433.41
2022-12-18T14:53:57.555Z,102434.25
2022-12-18T14:56:31.141Z,102428.19
2022-12-18T14:59:03.271Z,102429.88
2022-12-18T15:01:33.202Z,102442.81
2022-12-18T15:04:07.612Z,102441.97
2022-12-18T15:07:05.795Z,102443.66
2022-12-18T15:09:34.469Z,102452.28
2022-12-18T15:12:02.377Z,102454.00
2022-12-18T15:14:56.099Z,102460.88
2022-12-18T15:17:24.276Z,102463.47
2022-12-18T15:19:59.553Z,102462.56
2022-12-18T15:22:28.173Z,102451.38
2022-12-18T15:25:05.935Z,102452.19
2022-12-18T15:27:42.448Z,102459.00
2022-12-18T15:30:10.805Z,102456.34
2022-12-18T15:32:38.621Z,102472.66
2022-12-18T15:35:14.892Z,102476.00
2022-12-18T15:37:44.933Z,102478.44
2022-12-18T15:40:18.641Z,102471.41
2022-12-18T15:43:08.555Z,102477.47
2022-12-18T15:45:39.147Z,102477.19
2022-12-18T15:48:25.852Z,102483.31
2022-12-18T15:50:55.368Z,102496.91
2022-12-18T15:53:22.827Z,102491.50
2022-12-18T15:56:12.181Z,102497.59
2022-12-18T15:58:45.971Z,102495.69
2022-12-18T16:01:14.336Z,102501.56
2022-12-18T16:03:45.550Z,102497.28
2022-12-18T16:06:14.928Z,102509.09
2022-12-18T16:08:42.549Z,102500.34
2022-12-18T16:11:21.077Z,102497.59
2022-12-18T16:13:50.558Z,102507.81
2022-12-18T16:16:22.576Z,102508.59
2022-12-18T16:18:58.747Z,102511.91
2022-12-18T16:21:29.423Z,102517.00
2022-12-18T16:24:03.019Z,102515.34
2022-12-18T16:26:30.659Z,102522.94
2022-12-18T16:28:59.975Z,102523.81
2022-12-18T16:31:30.174Z,102530.50
2022-12-18T16:34:18.961Z,102527.91
2022-12-18T16:36:46.072Z,102531.28
2022-12-18T16:39:13.189Z,102528.69
2022-12-18T16:41:40.461Z,102535.41
2022-12-18T16:44:09.053Z,102538.72
2022-12-18T16:46:38.140Z,102535.22
2022-12-18T16:49:05.899Z,102537.81
2022-12-18T16:51:33.429Z,102528.31
2022-12-18T16:54:01.369Z,102535.16
2022-12-18T16:56:30.660Z,102531.66
2022-12-18T16:58:58.780Z,102530.78
2022-12-18T17:01:26.526Z,102532.44
2022-12-18T17:04:00.449Z,102533.22
2022-12-18T17:06:28.716Z,102531.47
2022-12-18T17:09:01.020Z,102529.72
2022-12-18T17:11:30.433Z,102533.16
2022-12-18T17:13:59.228Z,102529.69
2022-12-18T17:16:27.192Z,102539.88
2022-12-18T17:18:54.394Z,102543.16
2022-12-18T17:21:21.575Z,102538.78
2022-12-18T17:23:48.788Z,102545.56
2022-12-18T17:26:15.966Z,102544.63
2022-12-18T17:28:43.258Z,102547.13
2022-12-18T17:31:21.405Z,102551.16
2022-12-18T17:33:48.896Z,102545.06
2022-12-18T17:36:16.207Z,102547.47
2022-12-18T17:38:44.353Z,102552.84
2022-12-18T17:41:11.808Z,102561.34
2022-12-18T17:43:48.227Z,102554.28
2022-12-18T17:46:15.492Z,102556.78
2022-12-18T17:48:43.462Z,102559.97
2022-12-18T17:51:11.180Z,102559.81
2022-12-18T17:53:39.567Z,102569.16
2022-12-18T17:56:09.855Z,102558.78
2022-12-18T17:58:37.180Z,102558.72
2022-12-18T18:01:04.780Z,102558.81
2022-12-18T18:03:33.160Z,102558.66
2022-12-18T18:06:03.067Z,102561.94
2022-12-18T18:08:31.983Z,102559.41
2022-12-18T18:11:24.824Z,102563.72
2022-12-18T18:14:01.885Z,102560.97
2022-12-18T18:16:29.173Z,102573.91
2022-12-18T18:19:00.416Z,102575.56
2022-12-18T18:21:28.199Z,102578.91
2022-12-18T18:23:55.832Z,102584.03
2022-12-18T18:26:23.072Z,102579.63
2022-12-18T18:28:54.297Z,102576.88
2022-12-18T18:31:21.547Z,102563.75
2022-12-18T18:33:48.876Z,102568.22
2022-12-18T18:36:17.056Z,102569.94
2022-12-18T18:38:48.557Z,102573.34
2022-12-18T18:41:16.722Z,102562.13
2022-12-18T18:43:44.410Z,102558.34
2022-12-18T18:46:13.982Z,102559.31
2022-12-18T18:48:42.493Z,102560.97
2022-12-18T18:51:12.285Z,102561.81
2022-12-18T18:53:43.105Z,102555.75
2022-12-18T18:58:59.665Z,102557.50
2022-12-18T19:01:27.133Z,102562.63
2022-12-18T19:03:55.165Z,102562.50
2022-12-18T19:06:25.000Z,102566.78
2022-12-18T19:08:53.847Z,102559.94
2022-12-18T19:11:49.782Z,102562.75
2022-12-18T19:14:18.154Z,102574.66
2022-12-18T19:16:46.794Z,102571.97
2022-12-18T19:19:16.364Z,102571.97
2022-12-18T19:21:44.584Z,102575.13
2022-12-18T19:24:13.562Z,102569.19
2022-12-18T19:26:41.552Z,102572.59
2022-12-18T19:29:09.398Z,102576.00
2022-12-18T19:31:37.479Z,102578.34
2022-12-18T19:34:07.065Z,102569.06
2022-12-18T19:36:35.737Z,102579.22
2022-12-18T19:39:07.882Z,102581.59
2022-12-18T19:41:35.139Z,102584.19
2022-12-18T19:44:07.570Z,102577.19
2022-12-18T19:46:36.303Z,102584.75
2022-12-18T19:49:10.564Z,102588.25
2022-12-18T19:51:39.273Z,102585.63
2022-12-18T19:54:06.673Z,102585.63
2022-12-18T19:56:35.375Z,102589.72
2022-12-18T19:59:05.315Z,102584.06
2022-12-18T20:01:33.701Z,102589.34
2022-12-18T20:04:03.376Z,102588.19
2022-12-18T20:06:35.010Z,102592.31
2022-12-18T20:09:04.820Z,102589.66
2022-12-18T20:11:33.662Z,102592.22
2022-12-18T20:14:09.951Z,102594.69
2022-12-18T20:16:37.293Z,102610.13
2022-12-18T20:19:06.068Z,102607.69
2022-12-18T20:21:35.181Z,102614.56
2022-12-18T20:24:03.674Z,102617.88
2022-12-18T20:26:33.101Z,102629.72
2022-12-18T20:29:01.153Z,102631.44
2022-12-18T20:31:29.336Z,102641.44
2022-12-18T20:34:00.251Z,102631.44
2022-12-18T20:36:30.662Z,102622.69
2022-12-18T20:39:01.571Z,102621.03
2022-12-18T20:41:37.332Z,102628.03
2022-12-18T20:44:09.843Z,102626.31
2022-12-18T20:46:54.849Z,102631.63
2022-12-18T20:49:24.051Z,102629.53
2022-12-18T20:51:56.598Z,102626.16
2022-12-18T20:54:24.924Z,102626.16
2022-12-18T20:56:52.121Z,102634.50
2022-12-18T20:59:20.541Z,102639.69
2022-12-18T21:01:49.148Z,102641.09
2022-12-18T21:04:19.389Z,102639.09
2022-12-18T21:06:52.042Z,102643.31
2022-12-18T21:09:23.040Z,102642.66
2022-12-18T21:12:13.960Z,102651.13
2022-12-18T21:14:42.904Z,102659.84
2022-12-18T21:17:12.114Z,102663.59
2022-12-18T21:19:40.828Z,102663.41
2022-12-18T21:22:10.547Z,102664.19
2022-12-18T21:24:38.201Z,102660.69
2022-12-18T21:27:05.665Z,102662.13
2022-12-18T21:29:36.298Z,102657.69
2022-12-18T21:32:04.092Z,102650.91
2022-12-18T21:34:33.300Z,102659.31
2022-12-18T21:37:01.734Z,102660.97
2022-12-18T21:39:30.287Z,102654.09
2022-12-18T21:42:18.084Z,102653.38
2022-12-18T21:44:48.539Z,102657.41
2022-12-18T21:47:22.753Z,102664.25
2022-12-18T21:49:53.990Z,102653.19
2022-12-18T21:52:31.108Z,102656.75
2022-12-18T21:55:06.137Z,102650.63
2022-12-18T21:57:36.037Z,102654.00
2022-12-18T22:00:04.830Z,102653.75
2022-12-18T22:02:39.637Z,102652.19
2022-12-18T22:05:07.382Z,102645.44
2022-12-18T22:07:34.749Z,102646.41
2022-12-18T22:10:02.262Z,102645.19
2022-12-18T22:12:43.429Z,102646.16
2022-12-18T22:15:21.016Z,102645.69
2022-12-18T22:17:48.959Z,102643.41
2022-12-18T22:20:16.860Z,102647.56
2022-12-18T22:22:44.783Z,102656.97
2022-12-18T22:25:11.847Z,102650.72
2022-12-18T22:27:41.572Z,102658.50
2022-12-18T22:30:10.460Z,102647.41
2022-12-18T22:32:37.545Z,102651.84
2022-12-18T22:35:10.372Z,102658.59
2022-12-18T22:37:42.459Z,102656.66
2022-12-18T22:40:18.118Z,102650.38
2022-12-18T22:42:53.127Z,102660.72
2022-12-18T22:45:20.334Z,102649.22
2022-12-18T22:47:48.086Z,102659.03
2022-12-18T22:50:15.566Z,102649.63
2022-12-18T22:52:42.816Z,102661.31
2022-12-18T22:55:10.121Z,102664.81
2022-12-18T22:57:39.323Z,102656.19
2022-12-18T23:00:09.391Z,102658.38
2022-12-18T23:02:38.022Z,102653.22
2022-12-18T23:05:05.702Z,102630.16
2022-12-18T23:07:34.299Z,102630.97
2022-12-18T23:10:01.556Z,102632.81
2022-12-18T23:12:30.199Z,102632.81
2022-12-18T23:14:57.783Z,102632.16
2022-12-18T23:17:24.977Z,102632.28
2022-12-18T23:19:52.944Z,102624.00
2022-12-18T23:22:20.568Z,102630.06
2022-12-18T23:24:47.627Z,102625.03
2022-12-18T23:27:14.982Z,102638.66
2022-12-18T23:29:42.917Z,102633.59
2022-12-18T23:32:12.807Z,102631.97
2022-12-18T23:34:41.105Z,102632.16
2022-12-18T23:37:10.429Z,102637.53
2022-12-18T23:39:39.309Z,102628.94
2022-12-18T23:42:08.200Z,102632.50
2022-12-18T23:44:37.103Z,102645.44
2022-12-18T23:47:04.405Z,102644.47
2022-12-18T23:49:31.818Z,102645.41
2022-12-18T23:52:00.908Z,102648.13
2022-12-18T23:54:32.921Z,102636.31
2022-12-18T23:57:01.598Z,102633.25
2022-12-18T23:59:30.438Z,102645.19
